»·PEaware :: N550BW KLAX-KMRY

N550BW :: KLAX-KMRY

FLIGHT INFORMATION

Flight Status: Arrived
Operator: Privately registered:
United States
More flights under this callsign
Pilot: Brett W. (430)
Aircraft: CESSNA 550 CITATION 2/S2/BRAVO
(C550)
More flights by this aircraft type
Origin: KLAX Los Angeles Intl
United States
Destination: KMRY Monterey Peninsula
United States
More flights between these airports :: More routes between these airports
Route: TRTON2 SCTRR WIGGL
File this flight plan on PilotEdge
Remarks: twitch.tv / bwflightsimulation
Altitude:
(Current/Filed)
22,000ft
Speed:
(Current/Filed)
370kts
Departed: 06-Dec-18 02:51 PM
Arrived: 06-Dec-18 03:44 PM
Distance/Time
Traveled:
232nm/0:53
Distance/Time
To Go:
Arrived

Flight Plot

Page will automatically refresh every two minutes.

Flight plan parsing failed; only flown route is shown


Map Options




Map Legend


Flown Route
Filed Route
Departure Airport
Arrival Airport
Navaid (VOR, NDB)
Fix

Horizontal Profiles

Position Reports

Time Latitude Longitude Heading Altitude Ground
Speed
06-Dec-18 13:51 33.932566 -118.398378 3 129ft 0kts
06-Dec-18 13:52 33.932566 -118.398378 3 129ft 0kts
06-Dec-18 13:53 33.932566 -118.398378 3 129ft 0kts
06-Dec-18 13:54 33.932566 -118.398378 3 129ft 0kts
06-Dec-18 13:55 33.932566 -118.398378 3 129ft 0kts
06-Dec-18 13:56 33.932566 -118.398378 3 129ft 0kts
06-Dec-18 13:57 33.932566 -118.398378 3 129ft 0kts
06-Dec-18 13:58 33.932566 -118.398378 3 129ft 0kts
06-Dec-18 13:59 33.932566 -118.398378 3 129ft 0kts
06-Dec-18 14:00 33.932566 -118.398378 3 129ft 0kts
06-Dec-18 14:00 33.932566 -118.398378 3 129ft 0kts
06-Dec-18 14:02 33.932566 -118.398378 3 129ft 0kts
06-Dec-18 14:03 33.932566 -118.398378 3 129ft 0kts
06-Dec-18 14:03 33.932566 -118.398378 3 129ft 0kts
06-Dec-18 14:04 33.932566 -118.398378 3 129ft 0kts
06-Dec-18 14:06 33.932566 -118.398378 3 129ft 0kts
06-Dec-18 14:07 33.932566 -118.398378 3 129ft 0kts
06-Dec-18 14:07 33.932566 -118.398378 3 129ft 0kts
06-Dec-18 14:09 33.932566 -118.398378 3 129ft 0kts
06-Dec-18 14:09 33.932566 -118.398378 3 129ft 0kts
06-Dec-18 14:11 33.932566 -118.398378 3 129ft 0kts
06-Dec-18 14:11 33.932566 -118.398378 3 129ft 0kts
06-Dec-18 14:12 33.932566 -118.398378 3 129ft 0kts
06-Dec-18 14:13 33.932566 -118.398378 3 129ft 0kts
06-Dec-18 14:14 33.932566 -118.398378 3 129ft 0kts
06-Dec-18 14:15 33.932566 -118.398378 3 129ft 0kts
06-Dec-18 14:16 33.932566 -118.398378 3 129ft 0kts
06-Dec-18 14:17 33.932566 -118.398378 3 129ft 0kts
06-Dec-18 14:18 33.932566 -118.398378 3 129ft 0kts
06-Dec-18 14:19 33.932566 -118.398378 3 129ft 0kts
06-Dec-18 14:20 33.932566 -118.398378 3 129ft 0kts
06-Dec-18 14:21 33.932566 -118.398378 3 129ft 0kts
06-Dec-18 14:22 33.932566 -118.398378 3 129ft 0kts
06-Dec-18 14:23 33.932566 -118.398378 3 129ft 0kts
06-Dec-18 14:24 33.932566 -118.398378 3 129ft 0kts
06-Dec-18 14:25 33.932566 -118.398378 3 129ft 0kts
06-Dec-18 14:26 33.932566 -118.398378 3 129ft 0kts
06-Dec-18 14:27 33.932566 -118.398378 3 129ft 0kts
06-Dec-18 14:28 33.932566 -118.398378 3 129ft 0kts
06-Dec-18 14:29 33.932566 -118.398378 3 129ft 0kts
06-Dec-18 14:30 33.932566 -118.398378 3 129ft 0kts
06-Dec-18 14:31 33.932566 -118.398378 3 129ft 0kts
06-Dec-18 14:32 33.932566 -118.398378 3 129ft 0kts
06-Dec-18 14:33 33.932566 -118.398378 3 129ft 0kts
06-Dec-18 14:34 33.932566 -118.398378 3 129ft 0kts
06-Dec-18 14:35 33.932566 -118.398378 3 129ft 0kts
06-Dec-18 14:36 33.932566 -118.398378 3 129ft 0kts
06-Dec-18 14:37 33.932566 -118.398378 3 129ft 0kts
06-Dec-18 14:38 33.932566 -118.398378 3 129ft 0kts
06-Dec-18 14:39 33.932566 -118.398378 3 129ft 0kts
06-Dec-18 14:40 33.932567 -118.398378 3 129ft 0kts
06-Dec-18 14:41 33.932569 -118.398378 3 129ft 0kts
06-Dec-18 14:42 33.932572 -118.398378 3 129ft 0kts
06-Dec-18 14:43 33.932954 -118.398358 355 129ft 6kts
06-Dec-18 14:44 33.934331 -118.398313 341 129ft 4kts
06-Dec-18 14:45 33.933712 -118.406299 263 129ft 22kts
06-Dec-18 14:46 33.933023 -118.412546 264 129ft 37kts
06-Dec-18 14:47 33.932628 -118.417834 288 129ft 0kts
06-Dec-18 14:48 33.932635 -118.417856 291 129ft 2kts
06-Dec-18 14:49 33.933721 -118.418480 81 129ft 8kts
06-Dec-18 14:50 33.936047 -118.390002 83 1510ft 125kts
06-Dec-18 14:51 33.942655 -118.327476 81 2965ft 243kts
06-Dec-18 14:52 33.951993 -118.246764 82 3625ft 249kts
06-Dec-18 14:53 33.919452 -118.200363 196 5229ft 215kts
06-Dec-18 14:54 33.885482 -118.254966 262 6347ft 246kts
06-Dec-18 14:55 33.886831 -118.337352 265 10002ft 248kts
06-Dec-18 14:56 33.887535 -118.420915 264 13162ft 253kts
06-Dec-18 14:57 33.888131 -118.507231 265 15954ft 261kts
06-Dec-18 14:58 33.888682 -118.596001 266 18454ft 270kts
06-Dec-18 14:59 33.889184 -118.688269 266 20738ft 279kts
06-Dec-18 15:00 33.902737 -118.784461 285 21941ft 325kts
06-Dec-18 15:01 33.932886 -118.879447 291 21932ft 376kts
06-Dec-18 15:02 33.982431 -118.979033 322 21929ft 382kts
06-Dec-18 15:03 34.066589 -119.000542 352 21932ft 387kts
06-Dec-18 15:04 34.164950 -119.035965 314 21933ft 368kts
06-Dec-18 15:05 34.237650 -119.122856 312 21929ft 368kts
06-Dec-18 15:06 34.310500 -119.210056 313 21930ft 368kts
06-Dec-18 15:07 34.383233 -119.297158 313 21932ft 368kts
06-Dec-18 15:08 34.455900 -119.384404 313 21934ft 368kts
06-Dec-18 15:09 34.520082 -119.461652 313 21934ft 368kts
06-Dec-18 15:10 34.592680 -119.549244 313 21932ft 368kts
06-Dec-18 15:11 34.665466 -119.637293 313 21932ft 369kts
06-Dec-18 15:12 34.727897 -119.713000 313 21931ft 369kts
06-Dec-18 15:13 34.800460 -119.801211 313 21942ft 369kts
06-Dec-18 15:14 34.869435 -119.885278 313 21940ft 369kts
06-Dec-18 15:15 34.936289 -119.966963 313 21940ft 369kts
06-Dec-18 15:16 34.999989 -120.044982 313 21941ft 368kts
06-Dec-18 15:17 35.072069 -120.133483 313 21948ft 367kts
06-Dec-18 15:18 35.144143 -120.222214 313 21951ft 368kts
06-Dec-18 15:19 35.222997 -120.303094 322 21951ft 371kts
06-Dec-18 15:20 35.295108 -120.369096 322 21956ft 371kts
06-Dec-18 15:21 35.377812 -120.444964 322 21958ft 371kts
06-Dec-18 15:22 35.460519 -120.521034 322 21963ft 371kts
06-Dec-18 15:23 35.533667 -120.588453 322 21971ft 371kts
06-Dec-18 15:24 35.618121 -120.661136 324 21977ft 369kts
06-Dec-18 15:25 35.702263 -120.733323 324 21979ft 368kts
06-Dec-18 15:26 35.785782 -120.805528 324 21981ft 367kts
06-Dec-18 15:27 35.869290 -120.877944 324 21983ft 366kts
06-Dec-18 15:28 35.936627 -120.936477 324 21984ft 366kts
06-Dec-18 15:29 36.020439 -121.009506 324 21820ft 372kts
06-Dec-18 15:30 36.104804 -121.083209 324 20550ft 363kts
06-Dec-18 15:31 36.185894 -121.154237 324 19199ft 355kts
06-Dec-18 15:32 36.262156 -121.221220 324 17320ft 299kts
06-Dec-18 15:33 36.332537 -121.283135 324 15207ft 329kts
06-Dec-18 15:34 36.403434 -121.345759 323 12508ft 298kts
06-Dec-18 15:35 36.441252 -121.418185 293 10159ft 285kts
06-Dec-18 15:36 36.470592 -121.503769 293 7469ft 252kts
06-Dec-18 15:37 36.496552 -121.579178 293 5583ft 216kts
06-Dec-18 15:38 36.518307 -121.642588 293 4975ft 177kts
06-Dec-18 15:39 36.534514 -121.697500 289 4121ft 167kts
06-Dec-18 15:40 36.551894 -121.749281 298 2870ft 152kts
06-Dec-18 15:41 36.569827 -121.796038 296 1525ft 147kts
06-Dec-18 15:42 36.585294 -121.839476 295 209ft 113kts
06-Dec-18 15:43 36.588472 -121.851234 294 208ft 9kts
06-Dec-18 15:44 36.589073 -121.857467 255 208ft 26kts
06-Dec-18 15:45 36.589344 -121.858580 347 208ft 0kts
06-Dec-18 15:46 36.589344 -121.858580 347 208ft 0kts

Navigation Log

Ident Type
Flight plan parsing failed, navigation log unavailable